createdAt,value
2018-07-23T00:00:41.014Z,19.26
2018-07-23T00:01:51.131Z,19.2
2018-07-23T00:03:01.209Z,19.2
2018-07-23T00:04:11.017Z,19.17
2018-07-23T00:05:20.829Z,19.04
2018-07-23T00:06:30.914Z,19.04
2018-07-23T00:07:40.212Z,19.05
2018-07-23T00:08:50.028Z,19
2018-07-23T00:09:59.831Z,18.92
2018-07-23T00:11:09.363Z,18.85
2018-07-23T00:12:19.160Z,18.86
2018-07-23T00:13:28.737Z,18.94
2018-07-23T00:14:38.524Z,18.83
2018-07-23T00:15:48.031Z,18.83
2018-07-23T00:16:57.564Z,18.81
2018-07-23T00:18:07.648Z,18.86
2018-07-23T00:19:17.760Z,18.92
2018-07-23T00:20:27.839Z,18.82
2018-07-23T00:21:37.891Z,18.89
2018-07-23T00:22:47.441Z,18.76
2018-07-23T00:23:57.238Z,18.85
2018-07-23T00:25:07.082Z,18.7
2018-07-23T00:26:17.171Z,18.88
2018-07-23T00:27:26.981Z,18.83
2018-07-23T00:28:36.773Z,18.79
2018-07-23T00:29:46.851Z,18.81
2018-07-23T00:30:56.960Z,18.81
2018-07-23T00:32:06.493Z,18.76
2018-07-23T00:33:16.549Z,18.64
2018-07-23T00:34:26.341Z,18.78
2018-07-23T00:35:36.150Z,18.68
2018-07-23T00:36:45.729Z,18.7
2018-07-23T00:37:55.785Z,18.7
2018-07-23T00:39:05.855Z,18.71
2018-07-23T00:40:15.401Z,18.76
2018-07-23T00:41:25.203Z,18.68
2018-07-23T00:42:35.052Z,18.66
2018-07-23T00:43:44.836Z,18.63
2018-07-23T00:44:54.938Z,18.64
2018-07-23T00:46:04.746Z,18.6
2018-07-23T00:47:14.274Z,18.52
2018-07-23T00:48:24.131Z,18.55
2018-07-23T00:49:34.196Z,18.52
2018-07-23T00:50:43.992Z,18.58
2018-07-23T00:51:54.085Z,18.51
2018-07-23T00:53:03.915Z,18.43
2018-07-23T00:54:13.754Z,18.42
2018-07-23T00:55:23.821Z,18.28
2018-07-23T00:56:33.618Z,18.39
2018-07-23T00:57:42.885Z,18.39
2018-07-23T00:58:52.689Z,18.45
2018-07-23T01:00:02.268Z,18.3
2018-07-23T01:01:12.080Z,18.36
2018-07-23T01:02:22.148Z,18.23
2018-07-23T01:03:31.685Z,18.27
2018-07-23T01:04:41.228Z,18.28
2018-07-23T01:05:51.320Z,18.42
2018-07-23T01:07:01.407Z,18.39
2018-07-23T01:08:11.490Z,18.43
2018-07-23T01:09:21.547Z,18.43
2018-07-23T01:10:31.601Z,18.42
2018-07-23T01:11:41.182Z,18.55
2018-07-23T01:12:51.253Z,18.42
2018-07-23T01:14:01.328Z,18.51
2018-07-23T01:15:11.427Z,18.48
2018-07-23T01:16:21.508Z,18.48
2018-07-23T01:17:31.359Z,18.49
2018-07-23T01:18:41.163Z,18.57
2018-07-23T01:19:50.954Z,18.43
2018-07-23T01:21:00.742Z,18.43
2018-07-23T01:22:10.551Z,18.52
2018-07-23T01:23:20.662Z,18.48
2018-07-23T01:24:30.461Z,18.49
2018-07-23T01:25:40.513Z,18.41
2018-07-23T01:26:50.578Z,18.31
2018-07-23T01:28:00.114Z,18.31
2018-07-23T01:29:10.241Z,18.37
2018-07-23T01:30:20.288Z,18.3
2018-07-23T01:31:30.350Z,18.3
2018-07-23T01:32:40.150Z,18.36
2018-07-23T01:33:49.958Z,18.33
2018-07-23T01:35:00.061Z,18.33
2018-07-23T01:36:09.596Z,18.24
2018-07-23T01:37:19.680Z,18.26
2018-07-23T01:38:29.772Z,18.16
2018-07-23T01:39:39.584Z,18.09
2018-07-23T01:40:49.164Z,18.13
2018-07-23T01:41:59.219Z,18.15
2018-07-23T01:43:09.014Z,18.08
2018-07-23T01:44:19.076Z,18.03
2018-07-23T01:45:29.150Z,18.05
2018-07-23T01:46:39.006Z,18
2018-07-23T01:47:48.811Z,17.97
2018-07-23T01:48:58.602Z,17.88
2018-07-23T01:50:08.681Z,17.88
2018-07-23T01:51:18.200Z,17.82
2018-07-23T01:52:28.335Z,17.8
2018-07-23T01:53:38.135Z,17.66
2018-07-23T01:54:47.927Z,17.69
2018-07-23T01:55:58.014Z,17.65
2018-07-23T01:57:07.812Z,17.66
2018-07-23T01:58:17.937Z,17.71
2018-07-23T01:59:27.762Z,17.71
2018-07-23T02:00:37.567Z,17.68
2018-07-23T02:01:47.376Z,17.66
2018-07-23T02:02:56.897Z,17.66
2018-07-23T02:04:07.455Z,17.57
2018-07-23T02:05:17.529Z,17.53
2018-07-23T02:06:27.606Z,17.47
2018-07-23T02:07:37.676Z,17.5
2018-07-23T02:08:47.737Z,17.54
2018-07-23T02:09:57.838Z,17.56
2018-07-23T02:11:07.375Z,17.56
2018-07-23T02:12:16.910Z,17.56
2018-07-23T02:13:26.991Z,17.56
2018-07-23T02:14:36.797Z,17.49
2018-07-23T02:15:46.635Z,17.5
2018-07-23T02:16:56.694Z,17.52
2018-07-23T02:18:06.266Z,17.52
2018-07-23T02:19:16.424Z,17.5
2018-07-23T02:20:26.481Z,17.52
2018-07-23T02:21:36.349Z,17.42
2018-07-23T02:22:46.146Z,17.47
2018-07-23T02:23:55.941Z,17.42
2018-07-23T02:25:05.736Z,17.47
2018-07-23T02:26:15.254Z,17.41
2018-07-23T02:27:25.355Z,17.42
2018-07-23T02:28:35.426Z,17.5
2018-07-23T02:29:45.485Z,17.37
2018-07-23T02:30:55.273Z,17.5
2018-07-23T02:32:05.111Z,17.49
2018-07-23T02:33:14.694Z,17.49
2018-07-23T02:34:24.493Z,17.46
2018-07-23T02:35:34.024Z,17.5
2018-07-23T02:36:43.562Z,17.57
2018-07-23T02:37:53.641Z,17.49
2018-07-23T02:39:03.481Z,17.56
2018-07-23T02:40:13.556Z,17.65
2018-07-23T02:41:23.374Z,17.72
2018-07-23T02:42:32.924Z,17.72
2018-07-23T02:43:42.724Z,17.68
2018-07-23T02:44:52.585Z,17.72
2018-07-23T02:46:02.371Z,17.75
2018-07-23T02:47:12.161Z,17.79
2018-07-23T02:48:22.250Z,17.72
2018-07-23T02:49:31.518Z,17.68
2018-07-23T02:50:41.380Z,17.78
2018-07-23T02:51:50.908Z,17.82
2018-07-23T02:53:00.450Z,17.78
2018-07-23T02:54:10.531Z,17.75
2018-07-23T02:55:20.613Z,17.75
2018-07-23T02:56:30.464Z,17.71
2018-07-23T02:57:40.004Z,17.72
2018-07-23T02:58:49.805Z,17.79
2018-07-23T02:59:59.622Z,17.6
2018-07-23T03:03:43.489Z,17.73
2018-07-23T03:04:53.546Z,17.75
2018-07-23T03:06:03.360Z,17.65
2018-07-23T03:07:13.158Z,17.66
2018-07-23T03:08:22.968Z,17.68
2018-07-23T03:09:32.827Z,17.6
2018-07-23T03:10:42.891Z,17.65
2018-07-23T03:11:52.412Z,17.63
2018-07-23T03:13:02.492Z,17.56
2018-07-23T03:14:12.578Z,17.63
2018-07-23T03:15:22.450Z,17.65
2018-07-23T03:16:32.522Z,17.65
2018-07-23T03:17:42.310Z,17.56
2018-07-23T03:18:52.113Z,17.54
2018-07-23T03:20:01.910Z,17.52
2018-07-23T03:21:11.484Z,17.54
2018-07-23T03:22:21.553Z,17.49
2018-07-23T03:23:31.644Z,17.5
2018-07-23T03:24:41.740Z,17.56
2018-07-23T03:25:51.809Z,17.54
2018-07-23T03:27:01.967Z,17.57
2018-07-23T03:28:10.958Z,17.57
2018-07-23T03:29:21.026Z,17.57
2018-07-23T03:30:31.097Z,17.5
2018-07-23T03:31:40.918Z,17.59
2018-07-23T03:32:51.066Z,17.54
2018-07-23T03:34:00.605Z,17.53
2018-07-23T03:35:10.679Z,17.54
2018-07-23T03:36:20.471Z,17.54
2018-07-23T03:37:30.556Z,17.57
2018-07-23T03:38:40.414Z,17.5
2018-07-23T03:39:50.199Z,17.56
2018-07-23T03:40:59.981Z,17.54
2018-07-23T03:42:09.501Z,17.54
2018-07-23T03:43:19.306Z,17.65
2018-07-23T03:44:29.225Z,17.52
2018-07-23T03:45:39.025Z,17.65
2018-07-23T03:46:48.555Z,17.63
2018-07-23T03:47:58.620Z,17.52
2018-07-23T03:49:08.399Z,17.54
2018-07-23T03:50:18.509Z,17.59
2018-07-23T03:51:27.763Z,17.63
2018-07-23T03:52:37.295Z,17.6
2018-07-23T03:53:47.087Z,17.66
2018-07-23T03:54:56.631Z,17.59
2018-07-23T03:56:06.758Z,17.57
2018-07-23T03:57:16.822Z,17.56
2018-07-23T03:58:26.910Z,17.66
2018-07-23T03:59:36.975Z,17.66
2018-07-23T04:00:46.774Z,17.6
2018-07-23T04:01:56.888Z,17.72
2018-07-23T04:03:06.693Z,17.68
2018-07-23T04:04:16.485Z,17.68
2018-07-23T04:05:26.004Z,17.75
2018-07-23T04:06:35.795Z,17.73
2018-07-23T04:07:45.908Z,17.87
2018-07-23T04:08:55.702Z,17.88
2018-07-23T04:10:05.338Z,17.84
2018-07-23T04:11:15.029Z,17.86
2018-07-23T04:12:25.108Z,17.93
2018-07-23T04:13:34.959Z,17.91
2018-07-23T04:14:45.025Z,17.93
2018-07-23T04:15:54.824Z,17.95
2018-07-23T04:17:04.885Z,18.05
2018-07-23T04:18:14.674Z,17.94
2018-07-23T04:19:24.544Z,18
2018-07-23T04:20:34.620Z,18.06
2018-07-23T04:21:44.424Z,18.03
2018-07-23T04:22:54.499Z,18.06
2018-07-23T04:24:04.009Z,18.06
2018-07-23T04:25:14.131Z,18.06
2018-07-23T04:26:23.927Z,18.02
2018-07-23T04:27:34.014Z,18.08
2018-07-23T04:28:44.097Z,18.06
2018-07-23T04:29:53.632Z,18.16
2018-07-23T04:31:03.741Z,18.16
2018-07-23T04:32:13.546Z,18.23
2018-07-23T04:33:23.607Z,18.24
2018-07-23T04:34:33.410Z,18.21
2018-07-23T04:35:43.482Z,18.33
2018-07-23T04:36:53.318Z,18.28
2018-07-23T04:38:03.562Z,18.34
2018-07-23T04:39:13.364Z,18.42
2018-07-23T04:40:22.629Z,18.45
2018-07-23T04:41:32.142Z,18.24
2018-07-23T04:42:41.728Z,18.36
2018-07-23T04:43:51.544Z,18.34
2018-07-23T04:45:01.337Z,18.53
2018-07-23T04:46:10.861Z,18.39
2018-07-23T04:47:20.921Z,18.48
2018-07-23T04:48:31.041Z,18.52
2018-07-23T04:49:41.120Z,18.57
2018-07-23T04:50:51.192Z,18.68
2018-07-23T04:52:01.004Z,18.74
2018-07-23T04:53:10.815Z,18.76
2018-07-23T04:54:20.683Z,18.86
2018-07-23T04:55:30.475Z,18.85
2018-07-23T04:56:40.530Z,18.91
2018-07-23T04:57:50.570Z,18.98
2018-07-23T04:59:00.635Z,19
2018-07-23T05:00:10.480Z,19.04
2018-07-23T05:01:20.267Z,19.09
2018-07-23T05:02:30.063Z,19.12
2018-07-23T05:03:39.878Z,19.11
2018-07-23T05:04:49.675Z,19.19
2018-07-23T05:05:59.795Z,19.17
2018-07-23T05:07:09.608Z,19.22
2018-07-23T05:08:19.419Z,19.26
2018-07-23T05:09:29.217Z,19.27
2018-07-23T05:10:38.994Z,19.3
2018-07-23T05:11:48.560Z,19.34
2018-07-23T05:12:58.358Z,19.44
2018-07-23T05:14:08.421Z,19.47
2018-07-23T05:15:18.499Z,19.55
2018-07-23T05:16:28.293Z,19.62
2018-07-23T05:17:38.152Z,19.67
2018-07-23T05:18:47.953Z,19.78
2018-07-23T05:19:58.029Z,19.82
2018-07-23T05:21:07.553Z,19.84
2018-07-23T05:22:17.626Z,19.81
2018-07-23T05:23:27.478Z,19.92
2018-07-23T05:24:37.965Z,19.97
2018-07-23T05:25:47.431Z,19.99
2018-07-23T05:26:57.553Z,20
2018-07-23T05:28:07.363Z,20.03
2018-07-23T05:29:16.946Z,20
2018-07-23T05:30:26.472Z,20.18
2018-07-23T05:31:36.552Z,20.12
2018-07-23T05:32:46.695Z,20.22
2018-07-23T05:33:56.768Z,20.32
2018-07-23T05:35:06.628Z,20.22
2018-07-23T05:36:16.149Z,20.34
2018-07-23T05:37:26.234Z,20.36
2018-07-23T05:38:36.147Z,20.37
2018-07-23T05:39:46.513Z,20.48
2018-07-23T05:40:56.369Z,20.53
2018-07-23T05:42:06.324Z,20.56
2018-07-23T05:43:15.853Z,20.67
2018-07-23T05:44:25.924Z,20.68
2018-07-23T05:45:36.021Z,20.74
2018-07-23T05:46:45.876Z,20.85
2018-07-23T05:47:55.668Z,20.74
2018-07-23T05:49:05.463Z,20.83
2018-07-23T05:50:15.531Z,20.82
2018-07-23T05:51:25.601Z,20.82
2018-07-23T05:52:35.724Z,20.82
2018-07-23T05:53:45.813Z,20.93
2018-07-23T05:54:55.619Z,20.93
2018-07-23T05:56:05.712Z,20.9
2018-07-23T05:57:14.708Z,21
2018-07-23T05:58:24.839Z,21.04
2018-07-23T05:59:34.913Z,21.07
2018-07-23T06:00:44.724Z,21.07
2018-07-23T06:01:54.526Z,21.07
2018-07-23T06:03:04.331Z,21.05
2018-07-23T06:04:14.460Z,21.13
2018-07-23T06:05:24.256Z,21.13
2018-07-23T06:06:34.521Z,21.17
2018-07-23T06:07:44.767Z,21.19
2018-07-23T06:08:54.550Z,21.23
2018-07-23T06:10:09.130Z,21.28
2018-07-23T06:11:19.193Z,21.17
2018-07-23T06:12:29.274Z,21.23
2018-07-23T06:13:39.253Z,21.23
2018-07-23T06:14:49.323Z,21.13
2018-07-23T06:15:59.422Z,21.13
2018-07-23T06:17:08.959Z,21.1
2018-07-23T06:18:19.035Z,21.05
2018-07-23T06:19:29.109Z,21.01
2018-07-23T06:20:38.907Z,21.01
2018-07-23T06:21:49.020Z,20.89
2018-07-23T06:22:59.101Z,20.92
2018-07-23T06:24:08.900Z,21.01
2018-07-23T06:25:18.152Z,20.92
2018-07-23T06:26:27.938Z,20.93
2018-07-23T06:27:38.066Z,20.86
2018-07-23T06:28:48.132Z,20.95
2018-07-23T06:29:57.470Z,20.93
2018-07-23T06:31:07.058Z,20.86
2018-07-23T06:32:16.970Z,20.95
2018-07-23T06:33:27.222Z,20.89
2018-07-23T06:34:37.291Z,20.92
2018-07-23T06:35:47.098Z,20.96
2018-07-23T06:37:10.907Z,20.96
2018-07-23T06:38:21.111Z,20.98
2018-07-23T06:39:31.496Z,20.95
2018-07-23T06:40:41.423Z,20.93
2018-07-23T06:41:51.482Z,20.93
2018-07-23T06:43:01.564Z,20.93
2018-07-23T06:44:11.700Z,20.9
2018-07-23T06:45:21.787Z,21.07
2018-07-23T06:46:31.927Z,21.11
2018-07-23T06:47:42.100Z,20.98
2018-07-23T06:48:52.180Z,21.1
2018-07-23T06:50:02.326Z,21.08
2018-07-23T06:51:12.130Z,21.17
2018-07-23T06:52:22.192Z,21.2
2018-07-23T06:53:31.984Z,21.25
2018-07-23T06:54:42.072Z,21.15
2018-07-23T06:55:52.212Z,21.23
2018-07-23T06:57:02.274Z,21.26
2018-07-23T06:58:12.388Z,21.33
2018-07-23T06:59:22.200Z,21.45
2018-07-23T07:00:31.531Z,21.54
2018-07-23T07:01:41.913Z,21.62
2018-07-23T07:02:51.705Z,21.63
2018-07-23T07:04:01.236Z,21.69
2018-07-23T07:05:10.770Z,21.8
2018-07-23T07:06:21.041Z,21.84
2018-07-23T07:07:30.717Z,21.88
2018-07-23T07:08:40.255Z,21.85
2018-07-23T07:09:50.327Z,21.88
2018-07-23T07:11:00.564Z,22
2018-07-23T07:12:09.789Z,22.06
2018-07-23T07:13:19.944Z,22.04
2018-07-23T07:14:29.275Z,22.12
2018-07-23T07:15:39.072Z,22.21
2018-07-23T07:16:48.877Z,22.22
2018-07-23T07:17:58.971Z,22.15
2018-07-23T07:19:09.150Z,22.22
2018-07-23T07:20:19.222Z,22.31
2018-07-23T07:21:29.043Z,22.41
2018-07-23T07:22:39.091Z,22.43
2018-07-23T07:23:48.922Z,22.44
2018-07-23T07:24:58.497Z,22.38
2018-07-23T07:26:08.298Z,22.41
2018-07-23T07:27:18.384Z,22.52
2018-07-23T07:28:28.186Z,22.44
2018-07-23T07:29:38.236Z,22.52
2018-07-23T07:30:48.373Z,22.62
2018-07-23T07:31:58.168Z,22.7
2018-07-23T07:33:07.686Z,22.67
2018-07-23T07:34:17.487Z,22.65
2018-07-23T07:35:27.280Z,22.62
2018-07-23T07:36:37.418Z,22.67
2018-07-23T07:37:47.482Z,22.62
2018-07-23T07:38:57.380Z,22.78
2018-07-23T07:40:06.909Z,22.83
2018-07-23T07:41:16.725Z,22.92
2018-07-23T07:42:26.578Z,23.01
2018-07-23T07:43:36.111Z,22.98
2018-07-23T07:44:45.905Z,23.14
2018-07-23T07:45:55.716Z,23.13
2018-07-23T07:47:05.501Z,23.21
2018-07-23T07:48:15.354Z,23.18
2018-07-23T07:49:25.157Z,23.23
2018-07-23T07:50:34.960Z,23.37
2018-07-23T07:51:45.033Z,23.28
2018-07-23T07:52:54.836Z,23.33
2018-07-23T07:54:04.694Z,23.29
2018-07-23T07:55:14.247Z,23.39
2018-07-23T07:56:24.343Z,23.37
2018-07-23T07:57:34.427Z,23.4
2018-07-23T07:58:44.557Z,23.56
2018-07-23T07:59:54.520Z,23.64
2018-07-23T08:01:04.340Z,23.62
2018-07-23T08:02:14.131Z,23.59
2018-07-23T08:03:24.224Z,23.56
2018-07-23T08:04:33.753Z,23.51
2018-07-23T08:05:43.883Z,23.39
2018-07-23T08:06:53.967Z,23.33
2018-07-23T08:08:03.551Z,23.47
2018-07-23T08:09:13.634Z,23.33
2018-07-23T08:10:23.690Z,23.55
2018-07-23T08:11:33.825Z,23.52
2018-07-23T08:12:43.780Z,23.64
2018-07-23T08:13:53.042Z,23.4
2018-07-23T08:15:03.122Z,23.37
2018-07-23T08:16:12.935Z,23.45
2018-07-23T08:17:23.077Z,23.52
2018-07-23T08:18:32.609Z,23.64
2018-07-23T08:19:42.153Z,23.56
2018-07-23T08:20:52.259Z,23.74
2018-07-23T08:22:02.340Z,23.79
2018-07-23T08:23:12.446Z,23.82
2018-07-23T08:24:22.256Z,23.95
2018-07-23T08:25:31.800Z,23.92
2018-07-23T08:26:41.880Z,24.01
2018-07-23T08:27:52.050Z,24.06
2018-07-23T08:29:02.537Z,24.06
2018-07-23T08:30:11.801Z,24.1
2018-07-23T08:31:21.915Z,24.11
2018-07-23T08:32:31.909Z,24
2018-07-23T08:33:41.469Z,24.14
2018-07-23T08:34:51.321Z,24.14
2018-07-23T08:36:00.858Z,24.18
2018-07-23T08:37:10.722Z,24.22
2018-07-23T08:38:20.611Z,24.22
2018-07-23T08:39:30.163Z,24.24
2018-07-23T08:40:40.325Z,24.25
2018-07-23T08:41:49.858Z,24.31
2018-07-23T08:42:59.742Z,24.31
2018-07-23T08:44:09.707Z,24.41
2018-07-23T08:45:19.514Z,24.51
2018-07-23T08:46:29.367Z,24.58
2018-07-23T08:47:39.445Z,24.59
2018-07-23T08:48:49.508Z,24.37
2018-07-23T08:49:59.586Z,24.36
2018-07-23T08:51:09.401Z,24.43
2018-07-23T08:52:19.380Z,24.48
2018-07-23T08:53:29.196Z,24.62
2018-07-23T08:54:39.265Z,24.68
2018-07-23T08:55:48.776Z,24.79
2018-07-23T08:56:58.863Z,24.86
2018-07-23T08:58:08.450Z,24.94
2018-07-23T08:59:18.545Z,24.99
2018-07-23T09:00:28.617Z,25.07
2018-07-23T09:01:38.713Z,25.11
2018-07-23T09:02:48.772Z,24.92
2018-07-23T09:03:58.365Z,24.85
2018-07-23T09:05:08.433Z,24.82
2018-07-23T09:06:18.241Z,24.56
2018-07-23T09:07:27.779Z,24.69
2018-07-23T09:08:37.819Z,24.68
2018-07-23T09:09:48.020Z,24.66
2018-07-23T09:10:58.093Z,24.66
2018-07-23T09:12:07.617Z,24.84
2018-07-23T09:13:17.420Z,24.85
2018-07-23T09:14:27.242Z,24.74
2018-07-23T09:15:37.102Z,24.62
2018-07-23T09:16:46.921Z,24.77
2018-07-23T09:17:56.443Z,24.89
2018-07-23T09:19:06.253Z,24.92
2018-07-23T09:20:16.349Z,25.03
2018-07-23T09:21:26.473Z,25.04
2018-07-23T09:22:36.543Z,25.29
2018-07-23T09:23:46.517Z,25.4
2018-07-23T09:24:56.497Z,25.41
2018-07-23T09:26:06.292Z,25.26
2018-07-23T09:27:16.426Z,25.33
2018-07-23T09:28:26.238Z,25.18
2018-07-23T09:29:36.039Z,25.19
2018-07-23T09:30:46.113Z,25.15
2018-07-23T09:31:55.639Z,25.18
2018-07-23T09:33:05.750Z,25.29
2018-07-23T09:34:15.841Z,25.24
2018-07-23T09:35:25.907Z,25.31
2018-07-23T09:36:35.976Z,25.18
2018-07-23T09:37:45.778Z,25.41
2018-07-23T09:38:55.623Z,25.52
2018-07-23T09:40:05.163Z,25.62
2018-07-23T09:41:14.963Z,25.67
2018-07-23T09:42:25.038Z,25.74
2018-07-23T09:43:35.115Z,25.78
2018-07-23T09:44:45.232Z,25.98
2018-07-23T09:45:54.774Z,26.06
2018-07-23T09:47:04.579Z,26.08
2018-07-23T09:48:14.669Z,25.93
2018-07-23T09:49:24.480Z,25.93
2018-07-23T09:50:34.347Z,25.91
2018-07-23T09:51:44.477Z,25.95
2018-07-23T09:52:54.660Z,26.1
2018-07-23T09:54:03.924Z,26.1
2018-07-23T09:55:14.008Z,26.27
2018-07-23T09:56:23.841Z,26.45
2018-07-23T09:57:33.366Z,26.55
2018-07-23T09:58:43.203Z,26.66
2018-07-23T09:59:53.298Z,26.74
2018-07-23T10:01:03.119Z,26.89
2018-07-23T10:02:12.960Z,27.03
2018-07-23T10:03:23.294Z,27.11
2018-07-23T10:04:33.285Z,27.25
2018-07-23T10:05:42.834Z,27.35
2018-07-23T10:06:52.644Z,27.29
2018-07-23T10:08:02.787Z,27.5
2018-07-23T10:09:12.317Z,27.61
2018-07-23T10:10:22.377Z,27.67
2018-07-23T10:11:32.443Z,27.88
2018-07-23T10:12:41.699Z,27.91
2018-07-23T10:13:51.573Z,28.01
2018-07-23T10:15:01.379Z,28.15
2018-07-23T10:16:11.466Z,28.2
2018-07-23T10:17:21.531Z,28.28
2018-07-23T10:18:31.618Z,28.46
2018-07-23T10:19:41.752Z,28.49
2018-07-23T10:20:51.561Z,28.6
2018-07-23T10:22:01.634Z,28.72
2018-07-23T10:23:11.791Z,28.82
2018-07-23T10:24:21.324Z,28.83
2018-07-23T10:25:31.193Z,28.89
2018-07-23T10:26:41.277Z,29.05
2018-07-23T10:27:50.814Z,29.1
2018-07-23T10:29:00.895Z,29.28
2018-07-23T10:30:10.971Z,29.34
2018-07-23T10:31:20.820Z,29.4
2018-07-23T10:32:30.882Z,29.53
2018-07-23T10:33:40.967Z,29.62
2018-07-23T10:34:50.496Z,29.67
2018-07-23T10:36:00.053Z,29.67
2018-07-23T10:37:09.649Z,29.68
2018-07-23T10:38:19.468Z,29.87
2018-07-23T10:39:29.531Z,29.89
2018-07-23T10:40:39.349Z,29.79
2018-07-23T10:41:49.439Z,29.92
2018-07-23T10:42:59.088Z,30.05
2018-07-23T10:44:09.166Z,29.95
2018-07-23T10:45:18.966Z,30.1
2018-07-23T10:46:28.236Z,29.95
2018-07-23T10:47:37.775Z,29.95
2018-07-23T10:48:47.925Z,30.06
2018-07-23T10:49:57.746Z,29.96
2018-07-23T10:51:07.742Z,30.06
2018-07-23T10:52:17.814Z,30.02
2018-07-23T10:53:27.625Z,30.17
2018-07-23T10:54:37.481Z,30.18
2018-07-23T10:55:47.563Z,30.23
2018-07-23T10:56:57.640Z,30.26
2018-07-23T10:58:07.479Z,30.31
2018-07-23T10:59:17.266Z,30.4
2018-07-23T11:00:27.131Z,30.54
2018-07-23T11:01:36.682Z,30.51
2018-07-23T11:02:46.780Z,30.46
2018-07-23T11:03:56.586Z,30.48
2018-07-23T11:05:06.122Z,30.52
2018-07-23T11:06:15.972Z,30.36
2018-07-23T11:07:26.310Z,30.32
2018-07-23T11:08:36.242Z,30.44
2018-07-23T11:09:46.053Z,30.33
2018-07-23T11:10:56.145Z,30.31
2018-07-23T11:12:06.289Z,30.26
2018-07-23T11:13:16.366Z,30.49
2018-07-23T11:14:26.437Z,30.4
2018-07-23T11:15:36.252Z,30.4
2018-07-23T11:16:46.323Z,30.48
2018-07-23T11:17:56.440Z,30.55
2018-07-23T11:19:06.012Z,30.67
2018-07-23T11:20:15.604Z,30.52
2018-07-23T11:21:25.135Z,30.74
2018-07-23T11:22:34.949Z,30.76
2018-07-23T11:23:45.087Z,30.76
2018-07-23T11:24:55.049Z,30.76
2018-07-23T11:26:45.060Z,30.91
2018-07-23T11:27:54.931Z,30.95
2018-07-23T11:29:04.785Z,31.02
2018-07-23T11:30:14.316Z,31.1
2018-07-23T11:31:24.129Z,31.2
2018-07-23T11:32:33.404Z,31.26
2018-07-23T11:33:43.498Z,31.37
2018-07-23T11:34:53.631Z,31.45
2018-07-23T11:36:03.703Z,31.51
2018-07-23T11:37:13.236Z,31.55
2018-07-23T11:38:23.040Z,31.72
2018-07-23T11:39:33.334Z,31.74
2018-07-23T11:40:43.612Z,31.67
2018-07-23T11:41:52.875Z,31.78
2018-07-23T11:43:02.985Z,31.77
2018-07-23T11:44:13.078Z,31.97
2018-07-23T11:45:23.104Z,31.97
2018-07-23T11:46:33.230Z,32.02
2018-07-23T11:47:43.037Z,32.07
2018-07-23T11:48:52.868Z,32.3
2018-07-23T11:50:02.663Z,32.39
2018-07-23T11:51:12.483Z,32.79
2018-07-23T11:52:22.612Z,33.16
2018-07-23T11:53:32.948Z,33.84
2018-07-23T11:54:43.412Z,34.38
2018-07-23T11:55:52.967Z,34.79
2018-07-23T11:57:02.991Z,35.25
2018-07-23T11:58:11.954Z,35.61
2018-07-23T11:59:21.772Z,35.87
2018-07-23T12:00:31.585Z,36.36
2018-07-23T12:01:41.464Z,36.85
2018-07-23T12:02:51.397Z,37.21
2018-07-23T12:04:01.270Z,37.47
2018-07-23T12:05:15.986Z,37.78
2018-07-23T12:06:25.266Z,37.91
2018-07-23T12:07:35.348Z,38.27
2018-07-23T12:08:45.439Z,38.36
2018-07-23T12:09:55.579Z,38.27
2018-07-23T12:11:05.662Z,38.41
2018-07-23T12:12:15.756Z,38.41
2018-07-23T12:13:25.337Z,38.31
2018-07-23T12:14:34.874Z,38
2018-07-23T12:15:45.004Z,38
2018-07-23T12:16:54.811Z,38.01
2018-07-23T12:18:04.914Z,37.98
2018-07-23T12:19:15.018Z,37.91
2018-07-23T12:20:25.096Z,37.86
2018-07-23T12:21:34.948Z,37.8
2018-07-23T12:22:45.031Z,37.75
2018-07-23T12:23:55.118Z,37.75
2018-07-23T12:25:04.395Z,38.02
2018-07-23T12:26:14.481Z,38.39
2018-07-23T12:27:23.809Z,38.81
2018-07-23T12:28:33.632Z,38.82
2018-07-23T12:29:43.454Z,39.01
2018-07-23T12:30:53.538Z,39.33
2018-07-23T12:32:03.342Z,39.73
2018-07-23T12:33:13.239Z,39.98
2018-07-23T12:34:23.317Z,39.93
2018-07-23T12:35:33.135Z,40.12
2018-07-23T12:36:43.209Z,40.19
2018-07-23T12:37:53.025Z,40.32
2018-07-23T12:39:03.151Z,40.54
2018-07-23T12:40:12.426Z,40.81
2018-07-23T12:41:22.504Z,40.76
2018-07-23T12:42:32.598Z,40.85
2018-07-23T12:43:42.695Z,40.85
2018-07-23T12:44:56.439Z,40.9
2018-07-23T12:46:06.251Z,40.77
2018-07-23T12:47:16.612Z,40.81
2018-07-23T12:48:26.552Z,40.58
2018-07-23T12:49:36.631Z,39.91
2018-07-23T12:50:47.062Z,38.62
2018-07-23T12:51:56.616Z,37.45
2018-07-23T12:53:06.171Z,36.57
2018-07-23T12:54:16.260Z,36.41
2018-07-23T12:55:26.343Z,37.06
2018-07-23T12:56:36.790Z,37.57
2018-07-23T12:57:46.617Z,38.16
2018-07-23T12:58:56.456Z,38.85
2018-07-23T13:00:06.777Z,39.22
2018-07-23T13:01:15.792Z,39.42
2018-07-23T13:02:25.658Z,39.7
2018-07-23T13:03:35.463Z,39.37
2018-07-23T13:04:45.281Z,38.62
2018-07-23T13:05:55.351Z,38.69
2018-07-23T13:07:05.163Z,38.76
2018-07-23T13:08:15.535Z,38.68
2018-07-23T13:09:25.018Z,38.66
2018-07-23T13:10:34.839Z,38.84
2018-07-23T13:11:44.132Z,38.17
2018-07-23T13:12:53.960Z,38.01
2018-07-23T13:14:03.818Z,37.48
2018-07-23T13:15:13.900Z,37.47
2018-07-23T13:16:23.968Z,37.71
2018-07-23T13:17:34.057Z,37.9
2018-07-23T13:18:43.863Z,37.76
2018-07-23T13:19:54.005Z,38.01
2018-07-23T13:21:03.291Z,38.35
2018-07-23T13:22:13.372Z,38.34
2018-07-23T13:23:23.460Z,38.53
2018-07-23T13:24:33.559Z,38.01
2018-07-23T13:25:43.521Z,37.71
2018-07-23T13:26:53.558Z,37.53
2018-07-23T13:28:03.383Z,37.36
2018-07-23T13:29:13.484Z,36.99
2018-07-23T13:30:23.568Z,36.91
2018-07-23T13:31:33.438Z,37.14
2018-07-23T13:32:43.266Z,37.06
2018-07-23T13:33:52.799Z,37.19
2018-07-23T13:35:02.341Z,37.04
2018-07-23T13:36:12.170Z,37.06
2018-07-23T13:37:22.031Z,36.96
2018-07-23T13:38:31.321Z,36.76
2018-07-23T13:39:41.129Z,36.7
2018-07-23T13:40:50.950Z,36.7
2018-07-23T13:42:00.503Z,36.6
2018-07-23T13:43:10.109Z,36.51
2018-07-23T13:44:20.193Z,36.47
2018-07-23T13:45:30.012Z,36.41
2018-07-23T13:46:39.811Z,36.45
2018-07-23T13:47:49.621Z,36.44
2018-07-23T13:48:59.483Z,36.43
2018-07-23T13:50:09.042Z,36.45
2018-07-23T13:51:18.588Z,36.54
2018-07-23T13:52:28.388Z,36.45
2018-07-23T13:53:38.467Z,36.41
2018-07-23T13:54:48.595Z,36.25
2018-07-23T13:55:58.401Z,36.13
2018-07-23T13:57:07.951Z,36.25
2018-07-23T13:58:17.224Z,36.2
2018-07-23T13:59:26.498Z,36.06
2018-07-23T14:00:36.088Z,36.24
2018-07-23T14:01:45.905Z,36.36
2018-07-23T14:02:55.972Z,36.57
2018-07-23T14:04:05.508Z,36.94
2018-07-23T14:05:15.335Z,37.18
2018-07-23T14:06:25.359Z,37.58
2018-07-23T14:07:35.307Z,38.16
2018-07-23T14:08:45.390Z,38.72
2018-07-23T14:09:55.222Z,39.22
2018-07-23T14:11:05.047Z,39.73
2018-07-23T14:12:14.913Z,40.23
2018-07-23T14:13:25.010Z,40.62
2018-07-23T14:14:35.087Z,40.95
2018-07-23T14:15:45.164Z,41.39
2018-07-23T14:16:54.969Z,41.49
2018-07-23T14:18:04.832Z,41.53
2018-07-23T14:19:14.651Z,41.58
2018-07-23T14:20:24.741Z,41.42
2018-07-23T14:21:34.929Z,41.11
2018-07-23T14:22:45.025Z,40.77
2018-07-23T14:23:55.177Z,39.91
2018-07-23T14:25:05.269Z,39.91
2018-07-23T14:26:15.088Z,39.78
2018-07-23T14:27:25.183Z,39.61
2018-07-23T14:28:35.273Z,39.32
2018-07-23T14:29:45.409Z,39.04
2018-07-23T14:30:54.966Z,39.03
2018-07-23T14:32:04.517Z,39.08
2018-07-23T14:33:14.580Z,39.15
2018-07-23T14:34:24.659Z,39.11
2018-07-23T14:35:34.782Z,38.95
2018-07-23T14:36:44.305Z,38.76
2018-07-23T14:37:54.388Z,38.73
2018-07-23T14:39:04.198Z,38.77
2018-07-23T14:40:14.024Z,38.84
2018-07-23T14:41:24.144Z,39.1
2018-07-23T14:42:33.981Z,39.17
2018-07-23T14:43:44.061Z,39.64
2018-07-23T14:44:54.211Z,40.14
2018-07-23T14:46:03.744Z,40.61
2018-07-23T14:47:13.862Z,41.23
2018-07-23T14:48:23.389Z,41.52
2018-07-23T14:49:33.477Z,41.84
2018-07-23T14:50:43.632Z,42.02
2018-07-23T14:51:53.714Z,42.15
2018-07-23T14:53:03.305Z,42.1
2018-07-23T14:54:13.387Z,42.17
2018-07-23T14:55:23.199Z,42.46
2018-07-23T14:56:33.291Z,43.05
2018-07-23T14:57:43.492Z,43.54
2018-07-23T14:58:53.850Z,44.02
2018-07-23T15:00:03.665Z,44.22
2018-07-23T15:01:13.750Z,44.42
2018-07-23T15:02:23.829Z,44.68
2018-07-23T15:03:33.240Z,45.06
2018-07-23T15:04:42.823Z,45.39
2018-07-23T15:05:52.635Z,45.73
2018-07-23T15:07:02.737Z,46.16